Time;durP1;ratioP1;P1;durP2;ratioP2;P2;SDS_P1;SDS_P2;PMS_P1;PMS_P2;Temp;Humidity;BMP_temperature;BMP_pressure;BME280_temperature;BME280_humidity;BME280_pressure;Samples;Min_cycle;Max_cycle;Signal;HPM_P1;HPM_P2
2022/02/27 00:04:03;;;;;;;;;;;;;;;21.63;27.49;96889.66;10412043;28;1938;-47
2022/02/27 00:09:04;;;;;;;;;;;;;;;21.63;27.09;96886.22;10395478;28;1806;-50
2022/02/27 00:14:04;;;;;;;;;;;;;;;21.61;27.22;96896.22;10398130;28;1906;-46
2022/02/27 00:19:05;;;;;;;;;;;;;;;21.61;27.18;96888.31;10402756;28;1850;-49
2022/02/27 00:24:05;;;;;;;;;;;;;;;21.58;27.27;96894.88;10396613;28;1888;-47
2022/02/27 00:29:06;;;;;;;;;;;;;;;21.51;27.35;96904.88;10394854;28;2285;-49
2022/02/27 00:34:06;;;;;;;;;;;;;;;21.47;27.44;96898.50;10395475;28;1906;-46
2022/02/27 00:39:07;;;;;;;;;;;;;;;21.45;27.70;96897.16;10400447;28;1817;-46
2022/02/27 00:44:08;;;;;;;;;;;;;;;21.41;27.67;96899.47;10391551;28;1861;-47
2022/02/27 00:49:08;;;;;;;;;;;;;;;21.41;27.79;96893.44;10397072;28;1853;-47
2022/02/27 00:54:09;;;;;;;;;;;;;;;21.37;28.03;96884.44;10407344;28;1973;-47
2022/02/27 00:59:09;;;;;;;;;;;;;;;21.35;28.13;96878.63;10401876;28;2159;-47
2022/02/27 01:04:10;;;;;;;;;;;;;;;21.34;27.82;96888.38;10408906;28;1842;-45
2022/02/27 01:09:10;;;;;;;;;;;;;;;21.34;27.85;96891.00;10405578;28;1832;-47
2022/02/27 01:14:11;;;;;;;;;;;;;;;21.27;28.34;96877.22;10405573;28;1914;-46
2022/02/27 01:19:11;;;;;;;;;;;;;;;21.24;28.33;96877.72;10408461;28;1818;-49
2022/02/27 01:24:12;;;;;;;;;;;;;;;21.22;28.23;96881.66;10400325;28;1786;-46
2022/02/27 01:29:12;;;;;;;;;;;;;;;21.20;28.45;96873.19;10400400;28;1854;-45
2022/02/27 01:34:12;;;;;;;;;;;;;;;21.21;28.31;96878.22;10400737;28;1914;-49
2022/02/27 01:39:13;;;;;;;;;;;;;;;21.12;28.63;96878.94;10399091;28;1839;-46
2022/02/27 01:44:13;;;;;;;;;;;;;;;21.12;28.36;96881.56;10402026;28;1854;-49
2022/02/27 01:49:13;;;;;;;;;;;;;;;21.10;28.49;96871.28;10400889;28;1847;-50
2022/02/27 01:54:14;;;;;;;;;;;;;;;21.10;28.46;96878.38;10406820;28;1926;-49
2022/02/27 01:59:15;;;;;;;;;;;;;;;21.02;28.19;96871.69;10400632;28;1997;-46
2022/02/27 02:04:16;;;;;;;;;;;;;;;21.02;28.11;96864.59;10402407;28;1899;-48
2022/02/27 02:09:16;;;;;;;;;;;;;;;20.95;28.32;96865.81;10411069;28;1894;-50
2022/02/27 02:14:17;;;;;;;;;;;;;;;21.00;28.41;96865.84;10402768;28;1965;-47
2022/02/27 02:19:20;;;;;;;;;;;;;;;20.93;28.17;96873.97;10398406;28;1992;-52
2022/02/27 02:24:29;;;;;;;;;;;;;;;20.93;27.99;96863.44;10399444;28;1866;-48
2022/02/27 02:29:33;;;;;;;;;;;;;;;20.93;28.05;96867.91;10403339;28;1994;-47
2022/02/27 02:34:33;;;;;;;;;;;;;;;20.89;27.95;96856.28;10401366;28;1970;-50
2022/02/27 02:39:34;;;;;;;;;;;;;;;20.84;28.13;96851.75;10404147;28;1842;-53
2022/02/27 02:44:34;;;;;;;;;;;;;;;20.80;28.06;96850.66;10398774;28;1982;-46
2022/02/27 02:49:34;;;;;;;;;;;;;;;20.84;27.98;96846.47;10402455;28;2003;-46
2022/02/27 02:54:34;;;;;;;;;;;;;;;20.75;27.97;96839.28;10411558;28;1921;-46
2022/02/27 02:59:35;;;;;;;;;;;;;;;20.76;27.80;96833.75;10403325;28;2033;-47
2022/02/27 03:04:35;;;;;;;;;;;;;;;20.71;28.06;96835.53;10381520;28;2126;-46
2022/02/27 03:09:36;;;;;;;;;;;;;;;20.70;28.09;96829.47;10398654;28;1966;-50
2022/02/27 03:14:36;;;;;;;;;;;;;;;20.68;28.07;96833.38;10400523;28;1967;-50
2022/02/27 03:19:37;;;;;;;;;;;;;;;20.67;28.09;96829.94;10396175;28;1924;-46
2022/02/27 03:24:37;;;;;;;;;;;;;;;20.66;27.75;96831.00;10396836;28;2016;-47
2022/02/27 03:29:37;;;;;;;;;;;;;;;20.62;27.87;96831.75;10386877;28;1935;-47
2022/02/27 03:34:37;;;;;;;;;;;;;;;20.59;27.64;96838.28;10408180;28;1960;-45
2022/02/27 03:39:38;;;;;;;;;;;;;;;20.56;27.94;96835.38;10410545;28;1972;-48
2022/02/27 03:44:38;;;;;;;;;;;;;;;20.52;27.79;96836.91;10412772;28;1875;-49
2022/02/27 03:49:39;;;;;;;;;;;;;;;20.58;27.82;96831.44;10412424;28;1948;-47
2022/02/27 03:54:39;;;;;;;;;;;;;;;20.54;27.94;96835.63;10410218;28;1926;-48
2022/02/27 03:59:40;;;;;;;;;;;;;;;20.50;27.85;96834.53;10384198;28;1904;-48
2022/02/27 04:04:41;;;;;;;;;;;;;;;20.49;27.74;96834.75;10397078;28;1897;-46
2022/02/27 04:09:41;;;;;;;;;;;;;;;20.48;27.76;96841.06;10396605;28;2159;-46
2022/02/27 04:14:42;;;;;;;;;;;;;;;20.42;27.70;96842.88;10395719;28;1984;-47
2022/02/27 04:19:42;;;;;;;;;;;;;;;20.40;27.43;96846.78;10396517;28;1964;-47
2022/02/27 04:24:42;;;;;;;;;;;;;;;20.35;27.46;96842.25;10413622;28;1863;-48
2022/02/27 04:29:45;;;;;;;;;;;;;;;20.34;27.44;96839.88;10400876;28;1913;-46
2022/02/27 04:34:45;;;;;;;;;;;;;;;20.33;27.53;96822.47;10408193;28;1981;-49
2022/02/27 04:39:45;;;;;;;;;;;;;;;20.30;27.67;96812.44;10409150;28;1887;-48
2022/02/27 04:44:46;;;;;;;;;;;;;;;20.28;27.59;96831.91;10482456;23;1952;-56
2022/02/27 04:49:48;;;;;;;;;;;;;;;20.24;28.02;96827.34;10472484;28;1992;-55
2022/02/27 04:54:48;;;;;;;;;;;;;;;20.22;27.75;96827.59;10469010;28;1972;-55
2022/02/27 04:59:48;;;;;;;;;;;;;;;20.19;27.63;96833.38;10465362;28;1889;-54
2022/02/27 05:04:49;;;;;;;;;;;;;;;20.21;27.51;96825.22;10467749;28;1874;-55
2022/02/27 05:09:49;;;;;;;;;;;;;;;20.18;27.33;96836.19;10469445;28;1845;-54
2022/02/27 05:14:49;;;;;;;;;;;;;;;20.16;27.38;96830.38;10463653;28;1943;-57
2022/02/27 05:19:50;;;;;;;;;;;;;;;20.13;27.44;96833.53;10478700;28;1896;-51
2022/02/27 05:24:50;;;;;;;;;;;;;;;20.10;27.50;96829.53;10477532;28;1836;-56
2022/02/27 05:29:50;;;;;;;;;;;;;;;20.04;27.74;96829.72;10480625;28;1828;-55
2022/02/27 05:34:51;;;;;;;;;;;;;;;19.97;27.92;96842.28;10477251;28;1970;-51
2022/02/27 05:39:53;;;;;;;;;;;;;;;19.92;27.74;96842.19;10455236;28;1896;-55
2022/02/27 05:44:53;;;;;;;;;;;;;;;19.94;27.61;96848.00;10479029;28;1818;-53
2022/02/27 05:49:54;;;;;;;;;;;;;;;19.89;27.58;96856.63;10462833;28;1964;-55
2022/02/27 05:54:54;;;;;;;;;;;;;;;19.90;27.46;96860.84;10477911;28;1933;-52
2022/02/27 05:59:54;;;;;;;;;;;;;;;19.95;27.10;96871.44;10477462;28;2378;-51
2022/02/27 06:04:55;;;;;;;;;;;;;;;20.01;27.25;96867.84;10466217;28;1892;-50
2022/02/27 06:09:56;;;;;;;;;;;;;;;19.92;27.40;96879.03;10479751;28;2075;-53
2022/02/27 06:14:57;;;;;;;;;;;;;;;19.83;27.46;96875.19;10456795;28;1918;-50
2022/02/27 06:19:58;;;;;;;;;;;;;;;19.79;27.34;96871.47;10463315;28;1958;-55
2022/02/27 06:24:58;;;;;;;;;;;;;;;19.78;27.37;96875.16;10462828;28;1856;-55
2022/02/27 06:29:59;;;;;;;;;;;;;;;19.73;27.40;96885.59;10478619;28;1993;-52
2022/02/27 06:34:59;;;;;;;;;;;;;;;19.70;27.47;96881.59;10466058;28;1917;-53
2022/02/27 06:40:00;;;;;;;;;;;;;;;19.68;27.52;96888.16;10458334;28;2251;-50
2022/02/27 06:45:00;;;;;;;;;;;;;;;19.66;27.32;96896.25;10484274;28;1904;-54
2022/02/27 06:50:01;;;;;;;;;;;;;;;19.65;27.29;96905.22;10483072;28;1857;-50
2022/02/27 06:55:01;;;;;;;;;;;;;;;19.64;27.61;96900.19;10481709;28;2365;-54
2022/02/27 07:00:03;;;;;;;;;;;;;;;19.60;27.63;96897.22;10479414;28;1917;-53
2022/02/27 07:05:03;;;;;;;;;;;;;;;19.60;27.64;96905.13;10475889;28;1892;-52
2022/02/27 07:10:04;;;;;;;;;;;;;;;19.60;27.45;96901.72;10455466;28;2006;-54
2022/02/27 07:15:05;;;;;;;;;;;;;;;19.59;27.53;96910.63;10469412;28;1891;-50
2022/02/27 07:20:05;;;;;;;;;;;;;;;19.57;27.38;96918.75;10460332;28;2157;-54
2022/02/27 07:25:06;;;;;;;;;;;;;;;19.56;27.53;96919.00;10464536;28;2021;-52
2022/02/27 07:30:07;;;;;;;;;;;;;;;19.54;27.60;96921.84;10458299;28;1851;-54
2022/02/27 07:35:07;;;;;;;;;;;;;;;19.55;27.54;96939.25;10465901;28;1957;-52
2022/02/27 07:40:08;;;;;;;;;;;;;;;19.51;27.53;96940.75;10467367;28;2042;-55
2022/02/27 07:45:09;;;;;;;;;;;;;;;19.52;28.26;96939.69;10462621;28;1796;-54
2022/02/27 07:50:09;;;;;;;;;;;;;;;19.51;28.05;96942.56;10455263;28;1843;-54
2022/02/27 07:55:10;;;;;;;;;;;;;;;19.49;28.34;96953.34;10459464;28;1894;-52
2022/02/27 08:00:10;;;;;;;;;;;;;;;19.48;28.41;96938.59;10469135;28;1980;-54
2022/02/27 08:05:11;;;;;;;;;;;;;;;19.46;28.32;96945.91;10475035;28;1988;-52
2022/02/27 08:10:11;;;;;;;;;;;;;;;19.46;28.35;96949.34;10470623;28;1764;-52
2022/02/27 08:15:14;;;;;;;;;;;;;;;19.45;28.27;96946.97;10475864;28;2051;-51
2022/02/27 08:20:14;;;;;;;;;;;;;;;19.43;28.57;96941.91;10462076;28;1934;-52
2022/02/27 08:25:15;;;;;;;;;;;;;;;19.43;28.55;96944.56;10464402;28;1872;-54
2022/02/27 08:30:16;;;;;;;;;;;;;;;19.41;28.52;96946.63;10454186;28;1839;-52
2022/02/27 08:35:17;;;;;;;;;;;;;;;19.40;28.51;96949.50;10453603;28;1910;-50
2022/02/27 08:40:17;;;;;;;;;;;;;;;19.41;28.92;96951.09;10468430;28;2040;-54
2022/02/27 08:45:17;;;;;;;;;;;;;;;19.38;28.40;96947.09;10457861;28;1768;-55
2022/02/27 08:50:18;;;;;;;;;;;;;;;19.38;28.58;96952.38;10452139;28;1820;-49
2022/02/27 08:55:18;;;;;;;;;;;;;;;19.37;28.64;96945.50;10462050;28;1986;-55
2022/02/27 09:00:19;;;;;;;;;;;;;;;19.36;28.50;96951.81;10443001;28;1788;-55
2022/02/27 09:05:21;;;;;;;;;;;;;;;19.36;28.60;96949.19;10471771;28;1803;-53
2022/02/27 09:10:21;;;;;;;;;;;;;;;19.36;28.34;96954.44;10472089;28;2049;-52
2022/02/27 09:15:22;;;;;;;;;;;;;;;19.34;28.52;96943.34;10471366;28;1890;-50
2022/02/27 09:20:22;;;;;;;;;;;;;;;19.32;28.33;96937.50;10479535;28;1867;-54
2022/02/27 09:25:23;;;;;;;;;;;;;;;19.33;28.26;96941.75;10479064;28;1859;-54
2022/02/27 09:30:23;;;;;;;;;;;;;;;19.33;28.40;96943.56;10464922;28;1917;-54
2022/02/27 09:35:28;;;;;;;;;;;;;;;19.32;28.07;96941.97;10459254;28;1768;-50
2022/02/27 09:40:28;;;;;;;;;;;;;;;19.32;28.42;96937.50;10464627;28;1863;-53
2022/02/27 09:45:29;;;;;;;;;;;;;;;19.32;28.48;96929.63;10466126;28;2055;-50
2022/02/27 09:50:29;;;;;;;;;;;;;;;19.29;28.08;96934.53;10486072;28;2035;-50
2022/02/27 09:55:30;;;;;;;;;;;;;;;19.29;28.58;96940.59;10481913;28;1800;-53
2022/02/27 10:00:30;;;;;;;;;;;;;;;19.27;28.54;96940.03;10485463;28;1843;-55
2022/02/27 10:05:30;;;;;;;;;;;;;;;19.26;28.52;96941.09;10485965;28;1799;-52
2022/02/27 10:10:31;;;;;;;;;;;;;;;19.26;28.26;96933.19;10486407;28;1973;-52
2022/02/27 10:15:31;;;;;;;;;;;;;;;19.29;28.08;96932.72;10471042;28;1968;-51
2022/02/27 10:20:31;;;;;;;;;;;;;;;19.29;28.20;96924.81;10474702;28;1839;-54
2022/02/27 10:25:32;;;;;;;;;;;;;;;19.28;28.39;96918.00;10464957;28;1811;-54
2022/02/27 10:30:34;;;;;;;;;;;;;;;19.24;28.34;96924.75;10463070;28;1975;-52
2022/02/27 10:35:37;;;;;;;;;;;;;;;19.24;28.12;96916.88;10456530;28;2011;-51
2022/02/27 10:40:48;;;;;;;;;;;;;;;19.23;28.37;96922.34;10465761;28;1760;-52
2022/02/27 10:46:14;;;;;;;;;;;;;;;19.21;28.35;96913.91;10460079;28;1867;-54
2022/02/27 10:51:15;;;;;;;;;;;;;;;19.23;28.02;96902.13;10456785;28;1981;-53
2022/02/27 10:56:16;;;;;;;;;;;;;;;19.22;27.94;96900.53;10469132;28;1764;-53
2022/02/27 11:01:23;;;;;;;;;;;;;;;19.24;28.05;96900.28;10457819;28;2056;-52
2022/02/27 11:06:23;;;;;;;;;;;;;;;19.24;27.84;96897.66;10476411;28;1792;-52
2022/02/27 11:11:25;;;;;;;;;;;;;;;19.24;27.79;96895.84;10464911;28;1977;-53
2022/02/27 11:16:25;;;;;;;;;;;;;;;19.22;27.81;96889.22;10464860;28;1867;-55
2022/02/27 11:21:26;;;;;;;;;;;;;;;19.22;27.36;96890.03;10467689;28;1878;-53
2022/02/27 11:26:26;;;;;;;;;;;;;;;19.25;27.42;96884.28;10475339;28;1828;-54
2022/02/27 11:31:26;;;;;;;;;;;;;;;19.24;27.37;96887.94;10457908;28;1985;-53
2022/02/27 11:36:27;;;;;;;;;;;;;;;19.21;27.50;96867.38;10455526;28;1867;-53
2022/02/27 11:41:27;;;;;;;;;;;;;;;19.19;27.60;96866.03;10458159;28;1756;-52
2022/02/27 11:46:35;;;;;;;;;;;;;;;19.13;27.54;96867.78;10459847;28;2056;-53
2022/02/27 11:51:35;;;;;;;;;;;;;;;19.20;27.50;96862.38;10456702;28;1917;-51
2022/02/27 11:56:38;;;;;;;;;;;;;;;19.19;27.30;96855.50;10461090;28;1896;-56
2022/02/27 12:01:48;;;;;;;;;;;;;;;19.16;27.40;96854.19;10472274;28;1890;-55
2022/02/27 12:06:57;;;;;;;;;;;;;;;19.16;27.57;96854.19;10460356;28;1839;-53
2022/02/27 12:11:57;;;;;;;;;;;;;;;19.14;27.41;96837.03;10439531;28;2031;-57
2022/02/27 12:16:58;;;;;;;;;;;;;;;19.09;27.61;96837.75;10475523;28;1854;-56
2022/02/27 12:21:59;;;;;;;;;;;;;;;19.07;27.63;96831.13;10471044;22;2021;-50
2022/02/27 12:27:00;;;;;;;;;;;;;;;19.03;27.82;96828.19;10427209;28;1997;-53
2022/02/27 12:32:05;;;;;;;;;;;;;;;19.05;27.73;96827.94;10441349;28;2035;-53
2022/02/27 12:37:05;;;;;;;;;;;;;;;19.05;27.76;96827.94;10420863;28;2086;-50
2022/02/27 12:42:07;;;;;;;;;;;;;;;19.07;27.68;96829.31;10426696;28;1853;-47
2022/02/27 12:47:08;;;;;;;;;;;;;;;19.04;27.78;96835.03;10440024;28;1846;-49
2022/02/27 12:52:15;;;;;;;;;;;;;;;19.01;27.73;96819.75;10425500;28;1991;-51
2022/02/27 12:57:16;;;;;;;;;;;;;;;18.99;27.79;96831.53;10432600;28;1902;-51
2022/02/27 13:02:17;;;;;;;;;;;;;;;18.98;27.91;96822.84;10451216;28;1846;-46
2022/02/27 13:07:18;;;;;;;;;;;;;;;19.00;27.86;96812.88;10444354;28;1771;-47
2022/02/27 13:12:19;;;;;;;;;;;;;;;19.09;27.63;96814.09;10428636;28;1975;-54
2022/02/27 13:17:21;;;;;;;;;;;;;;;19.08;27.57;96823.00;10430392;28;1886;-47
2022/02/27 13:22:25;;;;;;;;;;;;;;;19.10;27.64;96814.91;10450471;28;1703;-49
2022/02/27 13:27:29;;;;;;;;;;;;;;;19.72;27.04;96815.59;10449391;28;1858;-51
2022/02/27 13:32:31;;;;;;;;;;;;;;;21.01;26.12;96810.25;10430008;28;1914;-49
2022/02/27 13:37:33;;;;;;;;;;;;;;;21.47;24.92;96808.00;10446108;28;1917;-51
2022/02/27 13:42:33;;;;;;;;;;;;;;;20.74;24.61;96798.94;10450122;28;1869;-52
2022/02/27 13:47:34;;;;;;;;;;;;;;;20.24;25.78;96793.13;10446573;28;1835;-51
2022/02/27 13:52:37;;;;;;;;;;;;;;;20.67;25.47;96787.78;10432996;28;1910;-50
2022/02/27 13:57:40;;;;;;;;;;;;;;;20.63;24.87;96786.69;10429693;28;1864;-50
2022/02/27 14:02:41;;;;;;;;;;;;;;;20.17;25.25;96788.00;10447256;28;1826;-48
2022/02/27 14:07:42;;;;;;;;;;;;;;;19.76;25.82;96800.94;10442988;28;1882;-48
2022/02/27 14:12:54;;;;;;;;;;;;;;;19.51;26.40;96790.84;10447391;28;1967;-48
2022/02/27 14:17:54;;;;;;;;;;;;;;;19.35;27.04;96800.34;10404892;28;1790;-51
2022/02/27 14:23:05;;;;;;;;;;;;;;;19.29;27.19;96796.00;10430084;28;1789;-54
2022/02/27 14:28:10;;;;;;;;;;;;;;;19.22;27.09;96794.59;10429211;28;2124;-51
2022/02/27 14:33:10;;;;;;;;;;;;;;;19.14;26.95;96793.16;10446274;28;1913;-51
2022/02/27 14:38:11;;;;;;;;;;;;;;;19.11;27.20;96800.72;10446290;28;1701;-53
2022/02/27 14:43:12;;;;;;;;;;;;;;;19.08;27.24;96780.94;10447380;28;1796;-47
2022/02/27 14:48:13;;;;;;;;;;;;;;;19.03;27.27;96791.41;10444095;28;1857;-51
2022/02/27 14:53:13;;;;;;;;;;;;;;;19.00;27.36;96778.72;10446607;28;1969;-50
2022/02/27 14:58:15;;;;;;;;;;;;;;;18.99;27.11;96795.53;10446717;28;1961;-47
2022/02/27 15:03:19;;;;;;;;;;;;;;;18.96;27.32;96790.75;10442059;28;1853;-50
2022/02/27 15:08:20;;;;;;;;;;;;;;;18.95;27.33;96794.44;10420398;28;1827;-48
2022/02/27 15:13:21;;;;;;;;;;;;;;;18.95;27.24;96804.13;10447222;28;1910;-49
2022/02/27 15:18:21;;;;;;;;;;;;;;;18.91;27.12;96790.69;10443222;28;1838;-49
2022/02/27 15:23:22;;;;;;;;;;;;;;;18.88;27.35;96788.50;10442239;28;1901;-51
2022/02/27 15:28:23;;;;;;;;;;;;;;;18.80;27.32;96795.97;10443795;28;1989;-51
2022/02/27 15:33:23;;;;;;;;;;;;;;;18.83;27.44;96793.69;10426830;28;1927;-47
2022/02/27 15:38:26;;;;;;;;;;;;;;;18.79;27.38;96808.34;10444899;28;1924;-49
2022/02/27 15:43:27;;;;;;;;;;;;;;;18.79;27.32;96803.09;10424705;28;1951;-47
2022/02/27 15:48:30;;;;;;;;;;;;;;;18.78;27.18;96798.84;10442255;28;1874;-50
2022/02/27 15:53:33;;;;;;;;;;;;;;;18.77;27.16;96801.72;10443942;28;2009;-49
2022/02/27 15:58:36;;;;;;;;;;;;;;;18.77;27.16;96805.16;10445557;28;1764;-51
2022/02/27 16:03:38;;;;;;;;;;;;;;;18.76;27.15;96813.25;10425461;28;1821;-51
2022/02/27 16:08:44;;;;;;;;;;;;;;;18.74;27.13;96807.44;10439503;28;1815;-47
2022/02/27 16:13:46;;;;;;;;;;;;;;;18.73;27.13;96806.66;10411650;28;2288;-49
2022/02/27 16:18:46;;;;;;;;;;;;;;;18.71;27.12;96821.06;10425279;28;1836;-53
2022/02/27 16:23:46;;;;;;;;;;;;;;;18.68;27.15;96827.56;10425738;28;1878;-48
2022/02/27 16:28:48;;;;;;;;;;;;;;;18.65;27.17;96820.94;10447586;28;1897;-47
2022/02/27 16:33:49;;;;;;;;;;;;;;;18.64;27.12;96823.81;10433580;28;1979;-46
2022/02/27 16:38:51;;;;;;;;;;;;;;;18.65;26.99;96823.56;10452761;28;1843;-47
2022/02/27 16:43:52;;;;;;;;;;;;;;;18.64;26.93;96829.88;10448114;28;1840;-46
2022/02/27 16:48:52;;;;;;;;;;;;;;;18.62;26.94;96836.38;10447670;28;1815;-48
2022/02/27 16:53:55;;;;;;;;;;;;;;;18.60;26.99;96839.25;10450478;28;1910;-50
2022/02/27 16:58:59;;;;;;;;;;;;;;;18.56;26.94;96839.97;10433083;28;1966;-50
2022/02/27 17:03:59;;;;;;;;;;;;;;;18.57;26.90;96849.41;10428906;28;2084;-46
2022/02/27 17:09:00;;;;;;;;;;;;;;;18.57;26.83;96852.84;10447426;28;1977;-51
2022/02/27 17:14:00;;;;;;;;;;;;;;;18.52;26.91;96852.75;10433094;28;1882;-47
2022/02/27 17:19:00;;;;;;;;;;;;;;;18.58;26.87;96851.03;10447108;28;1825;-52
2022/02/27 17:24:01;;;;;;;;;;;;;;;18.53;26.76;96858.78;10448717;28;1894;-49
2022/02/27 17:29:04;;;;;;;;;;;;;;;18.52;26.85;96854.59;10449750;28;1898;-52
2022/02/27 17:34:04;;;;;;;;;;;;;;;18.46;26.83;96848.44;10426192;28;2062;-53
2022/02/27 17:39:04;;;;;;;;;;;;;;;18.51;26.97;96866.09;10429441;28;1835;-49
2022/02/27 17:44:05;;;;;;;;;;;;;;;18.49;26.77;96862.91;10432056;28;1962;-48
2022/02/27 17:49:05;;;;;;;;;;;;;;;18.49;26.60;96868.16;10447128;28;1791;-51
2022/02/27 17:54:05;;;;;;;;;;;;;;;18.51;26.59;96874.78;10425893;28;2164;-53
2022/02/27 17:59:06;;;;;;;;;;;;;;;18.47;26.68;96870.22;10430587;28;1856;-49
2022/02/27 18:04:06;;;;;;;;;;;;;;;18.46;26.66;96872.06;10428906;28;1844;-49
2022/02/27 18:09:07;;;;;;;;;;;;;;;18.46;26.70;96874.69;10444747;28;1851;-48
2022/02/27 18:14:08;;;;;;;;;;;;;;;18.42;26.72;96875.38;10431393;28;1985;-48
2022/02/27 18:19:08;;;;;;;;;;;;;;;18.42;26.72;96876.13;10429981;28;2207;-48
2022/02/27 18:24:08;;;;;;;;;;;;;;;18.40;26.61;96877.41;10428464;28;1887;-47
2022/02/27 18:29:09;;;;;;;;;;;;;;;18.39;26.73;96874.00;10429736;28;2180;-47
2022/02/27 18:34:09;;;;;;;;;;;;;;;18.38;26.54;96877.63;10427384;28;2184;-49
2022/02/27 18:39:10;;;;;;;;;;;;;;;18.39;26.72;96875.81;10445358;28;1817;-47
2022/02/27 18:44:10;;;;;;;;;;;;;;;18.36;26.87;96873.66;10448015;28;1818;-47
2022/02/27 18:49:11;;;;;;;;;;;;;;;18.36;26.67;96884.16;10424499;28;1906;-48
2022/02/27 18:54:11;;;;;;;;;;;;;;;18.33;26.74;96882.78;10429039;28;1974;-49
2022/02/27 18:59:12;;;;;;;;;;;;;;;18.38;26.53;96874.22;10440010;28;2230;-47
2022/02/27 19:04:13;;;;;;;;;;;;;;;18.38;26.65;96866.34;10445128;28;1968;-49
2022/02/27 19:09:13;;;;;;;;;;;;;;;18.34;26.76;96873.09;10445357;28;1826;-52
2022/02/27 19:14:14;;;;;;;;;;;;;;;18.29;26.73;96883.47;10427463;28;1898;-52
2022/02/27 19:19:15;;;;;;;;;;;;;;;18.29;26.65;96879.03;10425448;28;2349;-49
2022/02/27 19:24:15;;;;;;;;;;;;;;;18.31;26.62;96890.09;10425134;28;1928;-52
2022/02/27 19:29:16;;;;;;;;;;;;;;;18.25;26.56;96877.91;10422092;28;1898;-48
2022/02/27 19:34:16;;;;;;;;;;;;;;;18.25;26.50;96875.28;10408501;28;1971;-53
2022/02/27 19:39:17;;;;;;;;;;;;;;;18.21;26.67;96876.78;10424396;28;1871;-48
2022/02/27 19:44:18;;;;;;;;;;;;;;;18.26;26.64;96874.25;10444735;28;2179;-48
2022/02/27 19:49:18;;;;;;;;;;;;;;;18.27;26.68;96875.03;10423187;28;1850;-48
2022/02/27 19:54:19;;;;;;;;;;;;;;;18.25;26.65;96887.59;10419919;28;1914;-48
2022/02/27 19:59:20;;;;;;;;;;;;;;;18.20;26.66;96874.38;10446014;28;1850;-47
2022/02/27 20:04:21;;;;;;;;;;;;;;;18.19;26.68;96876.22;10423480;28;1822;-51
2022/02/27 20:14:41;;;;;;;;;;;;;;;18.22;26.50;96849.50;10463256;28;1953;-54
2022/02/27 20:19:41;;;;;;;;;;;;;;;18.19;26.45;96857.03;10455031;28;1903;-53
2022/02/27 20:24:41;;;;;;;;;;;;;;;18.11;26.65;96849.53;10432894;28;1987;-54
2022/02/27 20:29:42;;;;;;;;;;;;;;;18.05;26.68;96850.44;10440781;28;1864;-53
2022/02/27 20:34:42;;;;;;;;;;;;;;;17.98;26.74;96847.13;10433527;28;1997;-54
2022/02/27 20:39:43;;;;;;;;;;;;;;;18.02;26.81;96850.91;10437935;28;1880;-53
2022/02/27 20:44:43;;;;;;;;;;;;;;;18.02;26.86;96856.94;10423864;28;1864;-54
2022/02/27 20:49:44;;;;;;;;;;;;;;;18.01;26.76;96857.19;10431871;28;1815;-55
2022/02/27 20:54:44;;;;;;;;;;;;;;;18.01;26.71;96860.59;10422144;28;1914;-54
2022/02/27 20:59:44;;;;;;;;;;;;;;;18.02;26.72;96869.25;10423510;28;1867;-54
2022/02/27 21:04:45;;;;;;;;;;;;;;;18.06;26.71;96867.78;10418331;28;1812;-52
2022/02/27 21:09:45;;;;;;;;;;;;;;;18.04;26.73;96867.22;10444570;28;1971;-56
2022/02/27 21:14:46;;;;;;;;;;;;;;;18.05;26.71;96861.75;10444749;28;1906;-55
2022/02/27 21:19:47;;;;;;;;;;;;;;;18.03;26.56;96855.94;10430739;28;1908;-56
2022/02/27 21:24:47;;;;;;;;;;;;;;;18.00;26.71;96863.44;10429587;28;1814;-53
2022/02/27 21:29:47;;;;;;;;;;;;;;;18.02;26.58;96858.78;10450947;28;1925;-52
2022/02/27 21:34:48;;;;;;;;;;;;;;;18.05;26.70;96853.06;10434858;28;1902;-54
2022/02/27 21:39:48;;;;;;;;;;;;;;;18.06;26.36;96857.28;10429459;28;1823;-51
2022/02/27 21:44:48;;;;;;;;;;;;;;;18.04;26.63;96856.72;10427315;28;1817;-52
2022/02/27 21:49:49;;;;;;;;;;;;;;;18.05;26.51;96835.50;10431126;28;1788;-54
2022/02/27 21:54:49;;;;;;;;;;;;;;;18.06;26.48;96837.09;10444125;28;1911;-53
2022/02/27 21:59:49;;;;;;;;;;;;;;;18.09;26.39;96836.66;10434403;28;1860;-56
2022/02/27 22:04:50;;;;;;;;;;;;;;;18.07;26.38;96832.66;10427019;28;1905;-55
2022/02/27 22:09:50;;;;;;;;;;;;;;;18.07;26.43;96835.28;10443729;28;1872;-55
2022/02/27 22:14:50;;;;;;;;;;;;;;;18.09;26.48;96836.66;10437548;28;1961;-56
2022/02/27 22:19:51;;;;;;;;;;;;;;;18.07;26.43;96843.16;10453341;28;1856;-54
2022/02/27 22:24:51;;;;;;;;;;;;;;;18.05;26.44;96832.88;10423458;28;1880;-54
2022/02/27 22:29:51;;;;;;;;;;;;;;;18.10;26.33;96826.94;10439531;28;1873;-56
2022/02/27 22:34:52;;;;;;;;;;;;;;;18.04;26.38;96827.84;10420237;28;1906;-53
2022/02/27 22:39:52;;;;;;;;;;;;;;;18.09;26.22;96820.91;10430468;28;2045;-52
2022/02/27 22:44:52;;;;;;;;;;;;;;;18.06;26.25;96823.16;10430284;28;1779;-55
2022/02/27 22:49:53;;;;;;;;;;;;;;;18.09;26.26;96817.47;10441007;28;1719;-54
2022/02/27 22:54:53;;;;;;;;;;;;;;;18.06;26.30;96831.03;10427820;28;1899;-56
2022/02/27 22:59:53;;;;;;;;;;;;;;;18.05;26.28;96819.78;10446727;28;1797;-54
2022/02/27 23:10:13;;;;;;;;;;;;;;;18.00;26.38;96814.41;10449151;28;1881;-53
2022/02/27 23:15:13;;;;;;;;;;;;;;;17.99;26.39;96823.28;10432576;28;1913;-56
2022/02/27 23:20:14;;;;;;;;;;;;;;;18.08;26.28;96802.75;10433175;28;1882;-51
2022/02/27 23:25:14;;;;;;;;;;;;;;;18.05;26.26;96809.28;10427454;28;1972;-54
2022/02/27 23:30:14;;;;;;;;;;;;;;;18.05;26.12;96808.47;10434341;28;1752;-54
2022/02/27 23:35:14;;;;;;;;;;;;;;;18.07;26.17;96811.66;10428287;28;1906;-54
2022/02/27 23:40:15;;;;;;;;;;;;;;;18.11;26.09;96810.16;10441329;28;1915;-54
2022/02/27 23:45:15;;;;;;;;;;;;;;;18.06;26.21;96812.69;10424871;28;2003;-55
2022/02/27 23:50:16;;;;;;;;;;;;;;;18.10;26.18;96817.22;10439720;28;1814;-53
2022/02/27 23:55:17;;;;;;;;;;;;;;;18.07;26.18;96807.22;10417550;28;1946;-56
